Terminal Aerodrome Forecast
Issued by NWS Denver/Boulder, CO

Home | Current Version | Previous Version | Text Only | Print | Product List | Glossary On
Versions: 1 2 3 4 5 6 7 8 9 10 11 12 13 14 15 16 17 18 19 20 21 22 23 24 25 26 27 28 29 30 31 32 33 34 35 36 37 38 39 40 41 42 43 44 45 46 47 48 49 50
285
FTUS45 KBOU 280540
TAFDEN
TAF
KDEN 280540Z 2806/2912 17011KT P6SM FEW110 BKN220
     FM280900 22011KT P6SM SCT140 BKN200
     FM281400 25006KT P6SM SCT140
     FM281800 03008KT P6SM FEW090 SCT140
     FM282200 10008KT P6SM FEW090 SCT140 BKN200 PROB30 2823/2903
      VRB15G30KT -TSRA BKN070CB
     FM290300 23010KT P6SM SCT090 BKN140=

USA.gov is the U.S. government's official web portal to all federal, state and local government web resources and services.